Time;durP1;ratioP1;P1;durP2;ratioP2;P2;SDS_P1;SDS_P2;PMS_P1;PMS_P2;Temp;Humidity;BMP_temperature;BMP_pressure;BME280_temperature;BME280_humidity;BME280_pressure;Samples;Min_cycle;Max_cycle;Signal;HPM_P1;HPM_P2
2021/01/02 00:00:21;;;;;;;25.52;13.77;;;3.20;99.90;;;;;;5106187;28;20711;-83
2021/01/02 00:03:45;;;;;;;20.75;13.60;;;3.20;99.90;;;;;;5096830;28;20289;-83
2021/01/02 00:06:20;;;;;;;17.10;12.05;;;3.20;99.90;;;;;;5096728;28;20269;-83
2021/01/02 00:08:50;;;;;;;17.80;12.05;;;3.30;99.90;;;;;;5100553;28;20250;-84
2021/01/02 00:11:45;;;;;;;13.85;10.75;;;3.40;99.90;;;;;;5098152;28;20189;-86
2021/01/02 00:14:20;;;;;;;12.80;10.43;;;3.40;99.90;;;;;;5098787;28;20212;-87
2021/01/02 00:17:16;;;;;;;16.50;10.73;;;3.30;99.90;;;;;;5102565;28;20575;-87
2021/01/02 00:20:22;;;;;;;13.95;11.18;;;3.30;99.90;;;;;;5172570;22;20295;-82
2021/01/02 00:22:53;;;;;;;12.02;10.15;;;3.30;99.90;;;;;;5154261;27;20265;-82
2021/01/02 00:25:22;;;;;;;13.80;10.05;;;3.30;99.90;;;;;;5152160;27;20535;-84
2021/01/02 00:28:21;;;;;;;11.45;8.95;;;3.30;99.90;;;;;;5141586;27;20230;-85
2021/01/02 00:31:02;;;;;;;15.98;12.38;;;3.30;99.90;;;;;;5150740;27;20598;-83
2021/01/02 00:33:53;;;;;;;14.85;11.05;;;3.20;99.90;;;;;;5143347;27;20208;-82
2021/01/02 00:36:40;;;;;;;12.73;9.95;;;3.30;99.90;;;;;;5141006;27;20637;-82
2021/01/02 00:39:09;;;;;;;11.32;8.70;;;3.40;99.90;;;;;;5141217;27;20575;-83
2021/01/02 00:41:37;;;;;;;11.00;9.32;;;3.30;99.90;;;;;;5147822;27;20696;-83
2021/01/02 00:44:05;;;;;;;12.02;8.73;;;3.20;99.90;;;;;;5140912;27;20201;-84
2021/01/02 00:46:34;;;;;;;10.40;8.63;;;3.20;99.90;;;;;;5140949;27;20327;-83
2021/01/02 00:49:02;;;;;;;8.30;7.20;;;3.20;99.90;;;;;;5140345;27;20224;-83
2021/01/02 00:51:33;;;;;;;11.45;7.45;;;3.20;99.90;;;;;;5140969;27;20244;-83
2021/01/02 00:54:14;;;;;;;10.73;7.60;;;3.30;99.90;;;;;;5142595;27;20589;-83
2021/01/02 00:56:54;;;;;;;10.00;7.88;;;3.30;99.90;;;;;;5144175;27;20181;-83
2021/01/02 00:59:49;;;;;;;11.70;8.90;;;3.30;99.90;;;;;;5143413;27;20216;-83
2021/01/02 01:02:54;;;;;;;9.88;7.90;;;3.30;99.90;;;;;;5144610;27;20616;-83
2021/01/02 01:05:21;;;;;;;9.70;7.72;;;3.30;99.90;;;;;;5118776;27;20200;-83
2021/01/02 01:07:53;;;;;;;8.00;6.90;;;3.30;99.90;;;;;;5141787;27;20236;-84
2021/01/02 01:10:23;;;;;;;10.10;7.28;;;3.40;99.90;;;;;;5140858;27;20185;-82
2021/01/02 01:12:57;;;;;;;11.10;7.38;;;3.30;99.90;;;;;;5142097;27;20583;-81
2021/01/02 01:15:24;;;;;;;8.57;6.90;;;3.30;99.90;;;;;;5141848;27;20179;-81
2021/01/02 01:18:15;;;;;;;7.40;5.80;;;3.30;99.90;;;;;;5143376;27;20196;-83
2021/01/02 01:20:45;;;;;;;6.70;6.03;;;3.30;99.90;;;;;;5149784;27;20188;-82
2021/01/02 01:23:25;;;;;;;6.28;5.60;;;3.30;99.90;;;;;;5152657;27;20210;-83
2021/01/02 01:26:07;;;;;;;9.38;6.93;;;3.30;99.90;;;;;;5149887;27;20185;-84
2021/01/02 01:28:39;;;;;;;6.97;6.05;;;3.20;99.90;;;;;;5149226;27;20220;-84
2021/01/02 01:31:08;;;;;;;7.93;6.35;;;3.10;99.90;;;;;;5143042;27;20177;-84
2021/01/02 01:33:40;;;;;;;7.35;6.25;;;3.00;99.90;;;;;;5143388;27;20224;-83
2021/01/02 01:36:07;;;;;;;11.65;7.95;;;3.00;99.90;;;;;;5151106;27;20293;-83
2021/01/02 01:38:34;;;;;;;7.18;6.20;;;3.00;99.90;;;;;;5145322;27;20303;-83
2021/01/02 01:41:12;;;;;;;9.60;6.00;;;2.90;99.90;;;;;;5145200;27;20207;-82
2021/01/02 01:44:14;;;;;;;7.57;5.93;;;2.90;99.90;;;;;;5144519;27;20196;-83
2021/01/02 01:46:51;;;;;;;7.75;6.18;;;2.90;99.90;;;;;;5121217;27;20203;-83
2021/01/02 01:49:48;;;;;;;6.32;5.45;;;2.80;99.90;;;;;;5144008;27;20223;-83
2021/01/02 01:52:26;;;;;;;6.63;5.40;;;2.80;99.90;;;;;;5142120;27;20240;-83
2021/01/02 01:55:06;;;;;;;7.07;6.00;;;2.70;99.90;;;;;;5141507;27;20181;-83
2021/01/02 01:57:37;;;;;;;5.00;4.57;;;2.70;99.90;;;;;;5141451;27;20184;-83
2021/01/02 02:00:14;;;;;;;5.82;4.38;;;2.60;99.90;;;;;;5141779;27;20191;-83
2021/01/02 02:03:04;;;;;;;5.65;5.00;;;2.60;99.90;;;;;;5142459;27;20190;-84
2021/01/02 02:05:50;;;;;;;8.68;5.75;;;2.60;99.90;;;;;;5141872;27;20195;-83
2021/01/02 02:08:17;;;;;;;8.98;5.85;;;2.50;99.90;;;;;;5147186;27;20231;-83
2021/01/02 02:10:46;;;;;;;8.30;6.25;;;2.50;99.90;;;;;;5147418;27;20204;-83
2021/01/02 02:13:16;;;;;;;7.13;6.38;;;2.60;99.90;;;;;;5147694;27;20262;-82
2021/01/02 02:15:49;;;;;;;7.95;6.55;;;2.40;99.90;;;;;;5148359;27;20263;-83
2021/01/02 02:18:19;;;;;;;9.20;7.13;;;2.40;99.90;;;;;;5147463;27;20801;-82
2021/01/02 02:20:47;;;;;;;10.77;7.70;;;2.50;99.90;;;;;;5148493;27;20189;-82
2021/01/02 02:23:14;;;;;;;12.32;9.10;;;2.40;99.90;;;;;;5148342;27;20264;-83
2021/01/02 02:25:59;;;;;;;9.25;8.23;;;2.40;99.90;;;;;;5149098;27;20203;-83
2021/01/02 02:29:14;;;;;;;10.55;7.90;;;2.40;99.90;;;;;;5147869;27;20227;-83
2021/01/02 02:31:42;;;;;;;13.93;9.48;;;2.20;99.90;;;;;;5139394;27;20218;-83
2021/01/02 02:34:10;;;;;;;14.40;9.25;;;2.10;99.90;;;;;;5145698;27;20228;-82
2021/01/02 02:36:36;;;;;;;13.82;9.57;;;2.00;99.90;;;;;;5145616;27;20206;-83
2021/01/02 02:39:06;;;;;;;14.93;9.65;;;2.00;99.90;;;;;;5147543;27;20291;-83
2021/01/02 02:41:36;;;;;;;16.92;11.63;;;2.00;99.90;;;;;;5146940;27;20300;-83
2021/01/02 02:44:10;;;;;;;15.80;10.15;;;2.10;99.90;;;;;;5147937;27;20187;-83
2021/01/02 02:46:41;;;;;;;14.48;10.73;;;2.10;99.90;;;;;;5147245;27;20189;-84
2021/01/02 02:49:10;;;;;;;16.00;11.00;;;2.10;99.90;;;;;;5146380;27;20222;-84
2021/01/02 02:51:43;;;;;;;15.55;10.80;;;2.10;99.90;;;;;;5147689;27;20221;-83
2021/01/02 02:54:10;;;;;;;18.42;13.48;;;2.10;99.90;;;;;;5149793;27;20200;-83
2021/01/02 02:56:36;;;;;;;18.60;13.13;;;2.00;99.90;;;;;;5148878;27;20237;-84
2021/01/02 02:59:04;;;;;;;18.20;14.38;;;1.80;99.90;;;;;;5147963;27;20224;-84
2021/01/02 03:01:32;;;;;;;23.88;13.90;;;1.80;99.90;;;;;;5148089;27;20196;-83
2021/01/02 03:03:59;;;;;;;22.85;14.40;;;1.80;99.90;;;;;;5158337;27;20218;-83
2021/01/02 03:06:30;;;;;;;25.00;14.23;;;1.80;99.90;;;;;;5153452;27;20200;-83
2021/01/02 03:08:56;;;;;;;24.50;15.35;;;1.80;99.90;;;;;;5148555;27;20223;-83
2021/01/02 03:11:24;;;;;;;21.38;15.07;;;1.80;99.90;;;;;;5148136;27;20204;-81
2021/01/02 03:13:51;;;;;;;25.35;15.95;;;1.60;99.90;;;;;;5148398;27;20220;-82
2021/01/02 03:16:19;;;;;;;24.77;17.17;;;1.50;99.90;;;;;;5148795;27;20273;-82
2021/01/02 03:18:45;;;;;;;27.10;16.35;;;1.50;99.90;;;;;;5147702;27;20227;-83
2021/01/02 03:21:11;;;;;;;32.58;18.67;;;1.60;99.90;;;;;;5148232;27;20210;-83
2021/01/02 03:23:43;;;;;;;29.25;17.75;;;1.60;99.90;;;;;;5147709;27;20200;-82
2021/01/02 03:26:09;;;;;;;29.10;18.55;;;1.70;99.90;;;;;;5148052;27;20211;-82
2021/01/02 03:28:36;;;;;;;24.83;17.38;;;1.60;99.90;;;;;;5147414;27;20220;-82
2021/01/02 03:31:02;;;;;;;25.30;17.23;;;1.70;99.90;;;;;;5147927;27;20200;-83
2021/01/02 03:33:30;;;;;;;23.38;16.83;;;1.60;99.90;;;;;;5147783;27;20245;-83
2021/01/02 03:36:01;;;;;;;23.85;16.75;;;1.60;99.90;;;;;;5148080;27;20204;-83
2021/01/02 03:38:31;;;;;;;27.20;16.83;;;1.50;99.90;;;;;;5147543;27;20248;-83
2021/01/02 03:40:58;;;;;;;26.83;17.42;;;1.50;99.90;;;;;;5147426;27;20610;-83
2021/01/02 03:43:24;;;;;;;29.95;19.55;;;1.40;99.90;;;;;;5145485;27;20196;-83
2021/01/02 03:45:51;;;;;;;30.52;17.25;;;1.40;99.90;;;;;;5144066;27;20249;-83
2021/01/02 03:48:17;;;;;;;26.55;16.48;;;1.40;99.90;;;;;;5145671;27;20314;-83
2021/01/02 03:50:45;;;;;;;28.13;18.70;;;1.30;99.90;;;;;;5148896;27;20188;-83
2021/01/02 03:53:11;;;;;;;29.30;17.70;;;1.30;99.90;;;;;;5156434;28;20243;-82
2021/01/02 03:55:37;;;;;;;30.65;18.00;;;1.20;99.90;;;;;;5156929;28;20282;-82
2021/01/02 03:58:04;;;;;;;26.20;17.30;;;1.20;99.90;;;;;;5156395;28;20255;-82
2021/01/02 04:00:30;;;;;;;29.48;17.67;;;1.20;99.90;;;;;;5157044;28;20280;-82
2021/01/02 04:02:56;;;;;;;30.25;17.45;;;1.20;99.90;;;;;;5156717;28;20235;-83
2021/01/02 04:05:23;;;;;;;30.95;18.02;;;1.20;99.90;;;;;;5157239;28;20211;-83
2021/01/02 04:07:50;;;;;;;33.58;18.35;;;1.30;99.90;;;;;;5156896;28;20229;-83
2021/01/02 04:10:16;;;;;;;29.08;17.30;;;1.20;99.90;;;;;;5157213;28;20544;-83
2021/01/02 04:12:42;;;;;;;29.60;17.90;;;1.20;99.90;;;;;;5156513;28;20188;-83
2021/01/02 04:15:09;;;;;;;33.08;18.55;;;1.20;99.90;;;;;;5156677;28;20234;-83
2021/01/02 04:17:35;;;;;;;29.40;18.27;;;1.20;99.90;;;;;;5157795;28;20208;-82
2021/01/02 04:20:04;;;;;;;27.98;16.85;;;1.30;99.90;;;;;;5157391;28;20188;-82
2021/01/02 04:22:32;;;;;;;27.85;17.50;;;1.30;99.90;;;;;;5146775;28;20661;-82
2021/01/02 04:25:00;;;;;;;28.63;18.23;;;1.30;99.90;;;;;;5146882;28;20208;-83
2021/01/02 04:27:26;;;;;;;27.08;18.67;;;1.20;99.90;;;;;;5146440;28;20207;-83
2021/01/02 04:29:53;;;;;;;29.02;18.60;;;1.10;99.90;;;;;;5145911;28;20311;-83
2021/01/02 04:32:19;;;;;;;30.80;18.08;;;1.10;99.90;;;;;;5146434;28;20204;-83
2021/01/02 04:34:45;;;;;;;27.70;18.33;;;1.00;99.90;;;;;;5146460;28;20217;-82
2021/01/02 04:37:11;;;;;;;33.72;19.33;;;1.00;99.90;;;;;;5147020;28;20204;-82
2021/01/02 04:39:38;;;;;;;34.08;21.88;;;1.10;99.90;;;;;;5146693;28;20288;-82
2021/01/02 04:42:05;;;;;;;34.17;23.00;;;1.10;99.90;;;;;;5143846;28;20276;-82
2021/01/02 04:44:32;;;;;;;25.75;19.80;;;1.10;99.90;;;;;;5143269;28;20196;-82
2021/01/02 04:47:02;;;;;;;29.88;19.45;;;1.00;99.90;;;;;;5143395;28;20832;-82
2021/01/02 04:49:28;;;;;;;30.58;19.35;;;1.00;99.90;;;;;;5142815;28;20602;-82
2021/01/02 04:52:00;;;;;;;27.45;18.73;;;1.00;99.90;;;;;;5143191;28;20201;-82
2021/01/02 04:54:26;;;;;;;25.60;17.50;;;1.00;99.90;;;;;;5144616;28;20272;-82
2021/01/02 04:56:53;;;;;;;21.63;16.23;;;1.10;99.90;;;;;;5145275;28;20263;-82
2021/01/02 04:59:25;;;;;;;27.65;17.98;;;1.00;99.90;;;;;;5144621;27;20228;-82
2021/01/02 05:01:53;;;;;;;23.25;16.35;;;1.00;99.90;;;;;;5149861;27;20185;-82
2021/01/02 05:04:20;;;;;;;21.45;15.30;;;0.90;99.90;;;;;;5150106;27;20199;-82
2021/01/02 05:06:46;;;;;;;23.00;15.80;;;0.90;99.90;;;;;;5150144;27;20283;-84
2021/01/02 05:09:13;;;;;;;23.70;16.42;;;1.00;99.90;;;;;;5149921;27;20284;-83
2021/01/02 05:11:40;;;;;;;22.73;16.35;;;0.90;99.90;;;;;;5148869;27;20500;-83
2021/01/02 05:14:07;;;;;;;23.23;16.15;;;1.00;99.90;;;;;;5148487;27;20268;-83
2021/01/02 05:16:36;;;;;;;21.50;15.15;;;1.00;99.90;;;;;;5148083;27;20263;-83
2021/01/02 05:19:05;;;;;;;20.95;15.60;;;1.10;99.90;;;;;;5159702;27;20227;-81
2021/01/02 05:21:32;;;;;;;22.30;15.77;;;1.10;99.90;;;;;;5153937;27;20489;-82
2021/01/02 05:24:09;;;;;;;21.30;15.20;;;1.00;99.90;;;;;;5150925;27;20196;-82
2021/01/02 05:26:38;;;;;;;23.30;16.55;;;1.00;99.90;;;;;;5150952;27;20298;-82
2021/01/02 05:29:12;;;;;;;24.52;16.08;;;1.10;99.90;;;;;;5147759;27;20222;-83
2021/01/02 05:31:41;;;;;;;21.00;14.57;;;1.10;99.90;;;;;;5156059;27;20203;-82
2021/01/02 05:34:08;;;;;;;20.05;15.05;;;1.20;99.90;;;;;;5157220;27;20220;-81
2021/01/02 05:36:35;;;;;;;20.15;14.60;;;1.30;99.90;;;;;;5157031;27;20200;-82
2021/01/02 05:39:02;;;;;;;21.42;14.80;;;1.30;99.90;;;;;;5145685;27;20228;-82
2021/01/02 05:41:33;;;;;;;25.73;16.85;;;1.30;99.90;;;;;;5146674;27;20319;-82
2021/01/02 05:44:11;;;;;;;18.80;13.35;;;1.30;99.90;;;;;;5146732;27;20264;-81
2021/01/02 05:46:48;;;;;;;18.02;13.95;;;1.30;99.90;;;;;;5147384;27;20237;-82
2021/01/02 05:49:35;;;;;;;21.90;15.70;;;1.30;99.90;;;;;;5148814;27;20448;-83
2021/01/02 05:52:03;;;;;;;22.35;16.92;;;1.30;99.90;;;;;;5144607;27;20196;-83
2021/01/02 05:54:31;;;;;;;22.65;16.35;;;1.30;99.90;;;;;;5143672;27;20449;-83
2021/01/02 05:56:59;;;;;;;29.30;15.30;;;1.20;99.90;;;;;;5146073;27;20456;-82
2021/01/02 05:59:31;;;;;;;23.00;16.02;;;1.20;99.90;;;;;;5146681;27;20220;-82
2021/01/02 06:01:58;;;;;;;22.38;15.73;;;1.10;99.90;;;;;;5143927;27;20181;-82
2021/01/02 06:04:24;;;;;;;24.10;15.43;;;1.10;99.90;;;;;;5144083;27;20260;-82
2021/01/02 06:07:07;;;;;;;26.30;15.70;;;1.20;99.90;;;;;;5144748;27;20207;-82
2021/01/02 06:09:35;;;;;;;25.38;15.13;;;1.30;99.90;;;;;;5144325;27;20223;-81
2021/01/02 06:12:05;;;;;;;25.15;17.25;;;1.00;99.90;;;;;;5144156;27;20224;-81
2021/01/02 06:14:34;;;;;;;22.02;16.33;;;1.20;99.90;;;;;;5144990;27;20205;-82
2021/01/02 06:17:05;;;;;;;31.13;19.67;;;1.10;99.90;;;;;;5145907;27;20216;-82
2021/01/02 06:19:31;;;;;;;23.63;16.10;;;1.20;99.90;;;;;;5145747;27;20307;-81
2021/01/02 06:21:58;;;;;;;23.17;17.05;;;1.20;99.90;;;;;;5155851;27;20200;-81
2021/01/02 06:24:25;;;;;;;21.02;16.25;;;1.30;99.90;;;;;;5156854;27;20260;-82
2021/01/02 06:26:52;;;;;;;24.67;17.30;;;1.20;99.90;;;;;;5156540;27;20375;-83
2021/01/02 06:29:19;;;;;;;25.83;15.38;;;1.20;99.90;;;;;;5151581;27;20246;-82
2021/01/02 06:31:45;;;;;;;22.90;16.17;;;1.10;99.90;;;;;;5147987;27;20201;-83
2021/01/02 06:34:12;;;;;;;22.75;16.30;;;1.10;99.90;;;;;;5148987;27;20264;-82
2021/01/02 06:36:40;;;;;;;24.50;17.00;;;1.30;99.90;;;;;;5147339;27;20204;-82
2021/01/02 06:39:17;;;;;;;22.52;15.15;;;1.30;99.90;;;;;;5148213;27;20220;-83
2021/01/02 06:41:44;;;;;;;25.70;17.75;;;1.30;99.90;;;;;;5145272;27;20433;-83
2021/01/02 06:44:10;;;;;;;21.25;16.27;;;1.40;99.90;;;;;;5147138;27;20295;-83
2021/01/02 06:46:38;;;;;;;21.38;16.27;;;1.40;99.90;;;;;;5146628;27;20512;-83
2021/01/02 06:49:32;;;;;;;24.08;18.05;;;1.30;99.90;;;;;;5146257;27;20510;-83
2021/01/02 06:51:58;;;;;;;21.80;15.43;;;1.30;99.90;;;;;;5147044;27;20195;-82
2021/01/02 06:54:25;;;;;;;21.45;15.07;;;1.30;99.90;;;;;;5147789;27;20259;-83
2021/01/02 06:57:02;;;;;;;20.15;14.18;;;1.20;99.90;;;;;;5147954;27;20204;-81
2021/01/02 06:59:28;;;;;;;22.40;14.82;;;1.30;99.90;;;;;;5157192;27;20249;-82
2021/01/02 07:01:54;;;;;;;21.92;15.50;;;1.30;99.90;;;;;;5157613;27;20287;-81
2021/01/02 07:04:37;;;;;;;18.67;14.70;;;1.30;99.90;;;;;;5156706;27;20235;-81
2021/01/02 07:07:05;;;;;;;21.73;14.45;;;1.30;99.90;;;;;;5155422;27;20200;-82
2021/01/02 07:09:33;;;;;;;20.52;14.55;;;1.40;99.90;;;;;;5157766;27;20248;-81
2021/01/02 07:12:13;;;;;;;21.88;15.27;;;1.30;99.90;;;;;;5156917;27;20211;-82
2021/01/02 07:14:41;;;;;;;22.67;16.08;;;1.40;99.90;;;;;;5156800;27;20210;-82
2021/01/02 07:17:10;;;;;;;23.70;15.93;;;1.30;99.90;;;;;;5156626;27;20201;-82
2021/01/02 07:19:45;;;;;;;22.35;15.02;;;1.30;99.90;;;;;;5158097;27;20216;-83
2021/01/02 07:22:24;;;;;;;20.42;14.75;;;1.30;99.90;;;;;;5156823;27;20240;-83
2021/01/02 07:24:52;;;;;;;23.38;14.15;;;1.10;99.90;;;;;;5148435;27;20185;-83
2021/01/02 07:27:20;;;;;;;21.35;16.27;;;1.20;99.90;;;;;;5145616;27;20204;-83
2021/01/02 07:29:47;;;;;;;23.45;15.90;;;1.30;99.90;;;;;;5144531;27;20362;-83
2021/01/02 07:32:15;;;;;;;21.08;15.05;;;1.20;99.90;;;;;;5145289;27;20200;-82
2021/01/02 07:34:44;;;;;;;16.70;13.82;;;1.20;99.90;;;;;;5157992;27;20231;-81
2021/01/02 07:37:12;;;;;;;22.23;14.98;;;1.20;99.90;;;;;;5160071;27;20222;-82
2021/01/02 07:40:03;;;;;;;19.40;14.23;;;1.30;99.90;;;;;;5209873;22;20713;-82
2021/01/02 07:42:38;;;;;;;20.88;13.73;;;1.40;99.90;;;;;;5121961;28;20185;-83
2021/01/02 07:45:13;;;;;;;22.25;13.40;;;1.50;99.90;;;;;;5120706;28;20317;-83
2021/01/02 07:47:46;;;;;;;21.42;14.68;;;1.40;99.90;;;;;;5119816;28;20192;-82
2021/01/02 07:50:20;;;;;;;17.88;13.27;;;1.40;99.90;;;;;;5119632;28;20604;-83
2021/01/02 07:52:48;;;;;;;20.15;14.38;;;1.40;99.90;;;;;;5119642;28;20535;-83
2021/01/02 07:55:15;;;;;;;21.35;14.85;;;1.40;99.90;;;;;;5120670;28;20217;-83
2021/01/02 07:57:42;;;;;;;21.35;15.48;;;1.30;99.90;;;;;;5121563;28;20268;-83
2021/01/02 08:00:10;;;;;;;18.33;13.98;;;1.30;99.90;;;;;;5132799;28;20668;-82
2021/01/02 08:02:40;;;;;;;22.88;14.48;;;1.30;99.90;;;;;;5135742;28;20185;-82
2021/01/02 08:05:10;;;;;;;19.70;13.70;;;1.30;99.90;;;;;;5136576;28;20204;-82
2021/01/02 08:07:37;;;;;;;19.80;13.60;;;1.40;99.90;;;;;;5137525;28;20244;-83
2021/01/02 08:10:08;;;;;;;19.63;14.48;;;1.50;99.90;;;;;;5137666;28;20181;-83
2021/01/02 08:12:36;;;;;;;24.48;14.98;;;1.50;99.90;;;;;;5138187;28;20216;-83
2021/01/02 08:15:05;;;;;;;21.70;14.38;;;1.50;99.90;;;;;;5137434;28;20201;-83
2021/01/02 08:17:39;;;;;;;21.95;14.10;;;1.50;99.90;;;;;;5136160;28;20218;-83
2021/01/02 08:20:07;;;;;;;21.83;16.00;;;1.50;99.90;;;;;;5130095;28;20214;-83
2021/01/02 08:22:35;;;;;;;20.30;15.20;;;1.60;99.90;;;;;;5126602;28;20225;-83
2021/01/02 08:25:05;;;;;;;17.52;14.07;;;1.60;99.90;;;;;;5125269;28;20302;-83
2021/01/02 08:27:33;;;;;;;21.05;14.70;;;1.50;99.90;;;;;;5126884;28;20223;-83
2021/01/02 08:30:02;;;;;;;18.88;14.48;;;1.40;99.90;;;;;;5124073;28;20251;-83
2021/01/02 08:32:31;;;;;;;19.08;14.30;;;1.50;99.90;;;;;;5121723;28;20226;-83
2021/01/02 08:34:58;;;;;;;20.45;15.20;;;1.40;99.90;;;;;;5121367;28;20216;-83
2021/01/02 08:37:24;;;;;;;22.60;16.80;;;1.40;99.90;;;;;;5124598;28;20204;-83
2021/01/02 08:40:07;;;;;;;19.05;14.23;;;1.50;99.90;;;;;;5124279;28;20679;-83
2021/01/02 08:42:37;;;;;;;19.25;14.50;;;1.50;99.90;;;;;;5124837;28;20181;-83
2021/01/02 08:45:05;;;;;;;23.42;14.85;;;1.60;99.90;;;;;;5124263;28;20197;-84
2021/01/02 08:47:32;;;;;;;16.52;12.55;;;1.60;99.90;;;;;;5124615;28;20201;-83
2021/01/02 08:50:07;;;;;;;17.85;14.10;;;1.60;99.90;;;;;;5123111;28;20236;-83
2021/01/02 08:52:35;;;;;;;19.02;14.95;;;1.70;99.90;;;;;;5123762;28;20181;-83
2021/01/02 08:55:11;;;;;;;15.75;12.50;;;1.60;99.90;;;;;;5123878;28;20221;-83
2021/01/02 08:57:44;;;;;;;18.83;14.30;;;1.60;99.90;;;;;;5124072;28;20229;-83
2021/01/02 09:00:16;;;;;;;16.77;12.57;;;1.60;99.90;;;;;;5124344;27;20196;-83
2021/01/02 09:02:44;;;;;;;18.92;14.00;;;1.60;99.90;;;;;;5124807;28;20185;-83
2021/01/02 09:05:12;;;;;;;19.55;14.68;;;1.70;99.90;;;;;;5123950;28;20625;-83
2021/01/02 09:07:39;;;;;;;17.63;13.52;;;1.80;99.90;;;;;;5122372;28;20437;-83
2021/01/02 09:10:22;;;;;;;19.63;15.95;;;1.90;99.90;;;;;;5122964;28;20517;-83
2021/01/02 09:13:19;;;;;;;19.48;14.15;;;1.90;99.90;;;;;;5125050;28;20217;-83
2021/01/02 09:15:55;;;;;;;20.25;14.85;;;1.90;99.90;;;;;;5123641;28;20561;-83
2021/01/02 09:18:44;;;;;;;19.33;14.43;;;2.00;99.90;;;;;;5122510;28;20216;-83
2021/01/02 09:21:31;;;;;;;22.50;14.45;;;1.90;99.90;;;;;;5122457;28;20431;-84
2021/01/02 09:23:58;;;;;;;22.55;16.90;;;1.90;99.90;;;;;;5115605;28;20487;-84
2021/01/02 09:26:28;;;;;;;21.30;15.30;;;2.10;99.90;;;;;;5125274;28;20200;-84
2021/01/02 09:28:56;;;;;;;20.70;14.30;;;2.00;99.90;;;;;;5120229;28;20221;-83
2021/01/02 09:31:23;;;;;;;21.45;15.80;;;2.00;99.90;;;;;;5119651;28;20197;-84
2021/01/02 09:33:50;;;;;;;21.42;14.30;;;2.10;99.90;;;;;;5119315;28;20232;-83
2021/01/02 09:36:19;;;;;;;23.50;15.38;;;1.90;99.90;;;;;;5131720;28;20201;-83
2021/01/02 09:38:46;;;;;;;21.35;15.48;;;1.80;99.90;;;;;;5140461;28;20227;-84
2021/01/02 09:41:15;;;;;;;20.88;15.52;;;1.80;99.90;;;;;;5141653;28;20219;-83
2021/01/02 09:43:41;;;;;;;20.13;13.88;;;1.70;99.90;;;;;;5129703;28;20192;-82
2021/01/02 09:46:12;;;;;;;25.23;16.60;;;1.70;99.90;;;;;;5124554;28;20316;-83
2021/01/02 09:48:41;;;;;;;25.65;17.67;;;1.70;99.90;;;;;;5122121;28;20657;-82
2021/01/02 09:51:08;;;;;;;25.95;18.35;;;1.70;99.90;;;;;;5121199;28;20190;-83
2021/01/02 09:53:34;;;;;;;24.95;16.80;;;1.80;99.90;;;;;;5120673;28;20254;-83
2021/01/02 09:56:01;;;;;;;33.88;22.70;;;1.90;99.90;;;;;;5122347;28;20201;-83
2021/01/02 09:58:28;;;;;;;28.95;17.58;;;2.00;99.90;;;;;;5121668;28;20225;-84
2021/01/02 10:00:54;;;;;;;27.50;16.58;;;2.10;99.90;;;;;;5128043;28;20191;-83
2021/01/02 10:03:21;;;;;;;43.05;23.90;;;2.20;99.90;;;;;;5140546;28;20707;-83
2021/01/02 10:05:47;;;;;;;31.80;21.95;;;2.10;99.90;;;;;;5127894;28;20201;-84
2021/01/02 10:08:14;;;;;;;41.40;22.10;;;2.10;99.90;;;;;;5124161;28;20312;-84
2021/01/02 10:10:40;;;;;;;26.35;17.70;;;2.10;99.90;;;;;;5122622;28;20202;-84
2021/01/02 10:13:06;;;;;;;22.05;16.10;;;2.10;99.90;;;;;;5120628;28;20216;-84
2021/01/02 10:15:33;;;;;;;23.30;17.10;;;2.10;99.90;;;;;;5119863;28;20207;-84
2021/01/02 10:18:00;;;;;;;27.20;19.60;;;2.10;99.90;;;;;;5121475;28;20316;-84
2021/01/02 10:20:26;;;;;;;28.38;20.23;;;2.10;99.90;;;;;;5122063;28;20740;-84
2021/01/02 10:22:52;;;;;;;25.25;17.45;;;2.20;99.90;;;;;;5120036;28;20304;-84
2021/01/02 10:25:19;;;;;;;24.58;16.13;;;2.20;99.90;;;;;;5118520;28;20201;-84
2021/01/02 10:27:46;;;;;;;23.80;16.90;;;2.40;99.90;;;;;;5119194;28;20197;-84
2021/01/02 10:30:14;;;;;;;21.05;15.32;;;2.40;99.90;;;;;;5119624;28;20229;-84
2021/01/02 10:32:42;;;;;;;25.02;17.20;;;2.40;99.90;;;;;;5118852;28;20288;-84
2021/01/02 10:35:11;;;;;;;22.30;16.88;;;2.50;99.90;;;;;;5119427;28;20457;-84
2021/01/02 10:37:37;;;;;;;25.52;18.98;;;2.40;99.90;;;;;;5119084;28;20189;-83
2021/01/02 10:40:06;;;;;;;22.95;16.27;;;2.30;99.90;;;;;;5120322;28;20585;-84
2021/01/02 10:42:34;;;;;;;26.25;17.13;;;2.20;99.90;;;;;;5119308;28;20292;-84
2021/01/02 10:45:01;;;;;;;21.42;16.48;;;2.30;99.90;;;;;;5120302;28;20200;-84
2021/01/02 10:47:29;;;;;;;33.63;24.85;;;2.30;99.90;;;;;;5118793;28;20871;-84
2021/01/02 10:49:56;;;;;;;23.33;16.92;;;2.40;99.90;;;;;;5119316;28;20663;-83
2021/01/02 10:52:25;;;;;;;38.53;25.33;;;2.50;99.90;;;;;;5134528;28;20217;-82
2021/01/02 10:54:52;;;;;;;44.40;30.65;;;2.50;99.90;;;;;;5139388;28;20232;-82
2021/01/02 10:57:24;;;;;;;28.30;20.30;;;2.60;99.90;;;;;;5138446;28;20435;-82
2021/01/02 10:59:51;;;;;;;27.10;20.95;;;2.80;99.90;;;;;;5133131;28;20492;-83
2021/01/02 11:02:18;;;;;;;25.42;19.25;;;2.80;99.90;;;;;;5124529;28;20458;-83
2021/01/02 11:04:44;;;;;;;23.60;17.63;;;2.80;99.90;;;;;;5123157;28;20264;-83
2021/01/02 11:07:11;;;;;;;24.60;19.60;;;2.60;99.90;;;;;;5121353;28;20465;-83
2021/01/02 11:09:38;;;;;;;24.13;18.17;;;2.60;99.90;;;;;;5120020;28;20434;-83
2021/01/02 11:12:05;;;;;;;26.95;19.42;;;2.50;99.90;;;;;;5121522;28;20499;-83
2021/01/02 11:14:32;;;;;;;28.88;20.25;;;2.60;99.90;;;;;;5123152;28;20308;-85
2021/01/02 11:16:58;;;;;;;21.55;17.23;;;2.70;99.90;;;;;;5132752;28;20213;-83
2021/01/02 11:19:27;;;;;;;25.52;18.58;;;2.80;99.90;;;;;;5138417;28;20490;-82
2021/01/02 11:21:56;;;;;;;21.88;16.70;;;2.90;99.90;;;;;;5138085;28;20622;-83
2021/01/02 11:24:25;;;;;;;25.38;18.90;;;3.00;99.90;;;;;;5139377;28;20208;-83
2021/01/02 11:26:55;;;;;;;27.90;18.80;;;3.00;99.90;;;;;;5139568;28;20240;-82
2021/01/02 11:29:23;;;;;;;23.15;17.38;;;3.00;99.90;;;;;;5139547;28;20204;-82
2021/01/02 11:31:50;;;;;;;26.85;18.73;;;3.10;99.90;;;;;;5139713;28;20244;-82
2021/01/02 11:34:18;;;;;;;26.50;20.13;;;3.30;99.90;;;;;;5138750;28;20443;-81
2021/01/02 11:36:48;;;;;;;21.27;17.33;;;3.20;99.90;;;;;;5139220;28;20253;-82
2021/01/02 11:39:25;;;;;;;27.88;18.42;;;3.10;99.90;;;;;;5138659;28;20244;-83
2021/01/02 11:41:52;;;;;;;27.10;16.88;;;3.20;99.90;;;;;;5137877;28;20204;-83
2021/01/02 11:44:21;;;;;;;23.50;17.65;;;3.20;99.90;;;;;;5139142;28;20253;-81
2021/01/02 11:46:49;;;;;;;25.70;18.40;;;3.40;99.90;;;;;;5139327;28;20191;-83
2021/01/02 11:49:18;;;;;;;27.60;19.38;;;3.50;99.90;;;;;;5138108;28;20427;-83
2021/01/02 11:51:48;;;;;;;31.48;22.08;;;3.60;99.90;;;;;;5131568;28;20265;-83
2021/01/02 11:54:17;;;;;;;31.58;23.52;;;3.60;99.90;;;;;;5129056;28;20238;-84
2021/01/02 11:56:45;;;;;;;28.30;20.60;;;3.50;99.90;;;;;;5121386;28;20204;-83
2021/01/02 12:00:07;;;;;;;;;;;;;;;;;;;;;
2021/01/02 12:02:44;;;;;;;26.48;19.13;;;3.50;99.90;;;;;;5036035;28;20672;-83
2021/01/02 12:05:11;;;;;;;26.40;18.25;;;3.60;99.90;;;;;;5040222;28;20191;-84
2021/01/02 12:07:38;;;;;;;25.65;18.85;;;3.40;99.90;;;;;;5036973;28;20214;-84
2021/01/02 12:10:05;;;;;;;26.92;20.00;;;3.40;99.90;;;;;;5036415;28;20441;-84
2021/01/02 12:12:33;;;;;;;28.52;19.25;;;3.30;99.90;;;;;;5132669;23;20232;-84
2021/01/02 12:15:03;;;;;;;22.88;17.70;;;3.30;99.90;;;;;;5132806;28;20255;-84
2021/01/02 12:17:29;;;;;;;25.27;17.73;;;3.20;99.90;;;;;;5134446;28;20223;-81
2021/01/02 12:19:59;;;;;;;26.42;19.23;;;3.10;99.90;;;;;;5138282;28;20188;-83
2021/01/02 12:22:25;;;;;;;28.05;20.80;;;3.20;99.90;;;;;;5137463;28;20646;-81
2021/01/02 12:24:52;;;;;;;28.65;19.45;;;3.30;99.90;;;;;;5135975;28;20232;-84
2021/01/02 12:27:18;;;;;;;30.75;19.30;;;3.30;99.90;;;;;;5126129;28;20287;-84
2021/01/02 12:29:45;;;;;;;28.42;20.10;;;3.40;99.90;;;;;;5126068;28;20287;-84
2021/01/02 12:32:12;;;;;;;26.77;19.33;;;3.40;99.90;;;;;;5125423;28;20566;-83
2021/01/02 12:34:40;;;;;;;23.40;18.40;;;3.50;99.90;;;;;;5125140;28;20224;-83
2021/01/02 12:37:09;;;;;;;25.13;17.88;;;3.40;99.90;;;;;;5126159;28;20295;-85
2021/01/02 12:39:36;;;;;;;27.17;18.40;;;3.50;99.90;;;;;;5124445;28;20468;-83
2021/01/02 12:42:04;;;;;;;26.95;17.30;;;3.60;99.90;;;;;;5126011;28;20264;-84
2021/01/02 12:44:30;;;;;;;35.25;17.88;;;3.60;99.90;;;;;;5124375;28;20712;-84
2021/01/02 12:47:01;;;;;;;30.08;19.45;;;3.70;99.90;;;;;;5124283;28;20625;-83
2021/01/02 12:49:32;;;;;;;24.52;17.35;;;3.80;99.90;;;;;;5123798;28;20215;-84
2021/01/02 12:52:00;;;;;;;23.08;16.30;;;3.70;99.90;;;;;;5123413;28;20592;-83
2021/01/02 12:54:27;;;;;;;23.73;18.10;;;3.70;99.90;;;;;;5123894;28;20244;-84
2021/01/02 12:56:55;;;;;;;28.20;18.35;;;3.70;99.90;;;;;;5130435;28;20211;-83
2021/01/02 12:59:24;;;;;;;26.13;19.63;;;3.70;99.90;;;;;;5135736;28;20581;-83